Time;durP1;ratioP1;P1;durP2;ratioP2;P2;SDS_P1;SDS_P2;PMS_P1;PMS_P2;Temp;Humidity;BMP_temperature;BMP_pressure;BME280_temperature;BME280_humidity;BME280_pressure;Samples;Min_cycle;Max_cycle;Signal;HPM_P1;HPM_P2
2022/12/12 00:00:17;;;;;;;2.60;2.40;;;;;;;0.91;90.16;101205.28;5098832;27;97775;-30
2022/12/12 00:02:43;;;;;;;4.72;3.20;;;;;;;0.89;90.43;101205.31;5099305;27;96551;-31
2022/12/12 00:05:09;;;;;;;3.92;2.80;;;;;;;0.83;90.45;101197.38;5099451;27;96906;-33
2022/12/12 00:07:34;;;;;;;4.15;3.20;;;;;;;0.83;90.69;101205.38;5099071;27;97700;-31
2022/12/12 00:10:00;;;;;;;7.30;3.50;;;;;;;0.81;90.87;101201.84;5098866;27;99497;-30
2022/12/12 00:12:26;;;;;;;7.13;3.10;;;;;;;0.79;90.90;101203.69;5080549;27;96697;-31
2022/12/12 00:14:51;;;;;;;4.20;1.98;;;;;;;0.83;90.92;101211.63;5099527;27;96746;-32
2022/12/12 00:17:17;;;;;;;4.82;3.00;;;;;;;0.82;90.52;101201.84;5099046;27;98385;-31
2022/12/12 00:19:42;;;;;;;4.32;2.63;;;;;;;0.87;90.71;101211.56;5098659;27;97988;-31
2022/12/12 00:22:08;;;;;;;6.60;3.13;;;;;;;0.85;90.33;101209.78;5098219;27;96837;-31
2022/12/12 00:24:34;;;;;;;8.88;3.45;;;;;;;0.83;90.67;101208.97;5079976;27;96818;-32
2022/12/12 00:26:59;;;;;;;8.85;4.30;;;;;;;0.87;90.99;101217.78;5098761;27;97384;-31
2022/12/12 00:29:24;;;;;;;3.53;2.80;;;;;;;0.78;90.68;101212.56;5098358;27;98758;-30
2022/12/12 00:31:49;;;;;;;2.95;2.35;;;;;;;0.79;90.68;101215.22;5098633;27;96497;-31
2022/12/12 00:34:15;;;;;;;6.88;3.25;;;;;;;0.80;91.00;101213.44;5098635;27;96857;-31
2022/12/12 00:36:40;;;;;;;2.05;1.63;;;;;;;0.77;90.75;101210.84;5098282;27;98643;-31
2022/12/12 00:39:06;;;;;;;3.78;2.33;;;;;;;0.79;90.89;101215.22;5098961;27;97760;-32
2022/12/12 00:41:31;;;;;;;4.78;2.85;;;;;;;0.79;91.25;101215.22;5098331;27;96529;-31
2022/12/12 00:43:57;;;;;;;3.22;2.08;;;;;;;0.74;90.74;101211.75;5079830;27;96789;-31
2022/12/12 00:46:24;;;;;;;11.93;3.92;;;;;;;0.71;91.12;101210.91;5097769;27;99341;-32
2022/12/12 00:48:53;;;;;;;5.07;3.28;;;;;;;0.69;91.22;101216.28;5079678;27;101057;-31
2022/12/12 00:51:20;;;;;;;3.97;2.38;;;;;;;0.67;91.36;101217.19;5080023;27;96579;-31
2022/12/12 00:53:47;;;;;;;7.00;2.30;;;;;;;0.62;90.87;101217.25;5079851;27;96868;-31
2022/12/12 00:56:17;;;;;;;5.40;2.33;;;;;;;0.60;91.28;101205.75;5079676;27;101254;-31
2022/12/12 00:58:43;;;;;;;6.47;2.75;;;;;;;0.60;91.22;101211.97;5079241;27;101180;-32
2022/12/12 01:01:11;;;;;;;4.55;2.53;;;;;;;0.57;91.00;101204.03;5096090;27;96495;-32
2022/12/12 01:03:39;;;;;;;6.78;4.25;;;;;;;0.57;91.12;101211.09;5077436;27;96943;-31
2022/12/12 01:06:05;;;;;;;4.80;2.42;;;;;;;0.56;91.39;101220.03;5076915;27;101370;-31
2022/12/12 01:08:31;;;;;;;7.97;4.07;;;;;;;0.49;91.04;101215.69;5076767;27;101380;-30
2022/12/12 01:10:57;;;;;;;6.43;3.10;;;;;;;0.48;91.27;101221.91;5095137;27;96504;-36
2022/12/12 01:13:23;;;;;;;6.13;3.85;;;;;;;0.46;91.22;101218.41;5095473;27;96844;-33
2022/12/12 01:15:48;;;;;;;3.17;2.70;;;;;;;0.40;91.17;101222.88;5095589;27;97932;-31
2022/12/12 01:18:14;;;;;;;1.70;1.55;;;;;;;0.44;91.52;101217.53;5095492;27;97841;-31
2022/12/12 01:20:40;;;;;;;4.18;2.58;;;;;;;0.44;91.37;101221.06;5095514;27;96548;-31
2022/12/12 01:23:06;;;;;;;6.75;3.42;;;;;;;0.41;91.21;101229.13;5076004;27;96890;-31
2022/12/12 01:25:32;;;;;;;3.45;2.90;;;;;;;0.38;91.17;101223.81;5076569;27;101318;-32
2022/12/12 01:27:58;;;;;;;2.80;1.33;;;;;;;0.39;91.27;101226.47;5095558;27;97219;-31
2022/12/12 01:30:23;;;;;;;3.22;1.95;;;;;;;0.36;91.07;101226.50;5095613;27;96591;-31
2022/12/12 01:32:49;;;;;;;7.57;2.03;;;;;;;0.32;91.46;101231.91;5095235;27;96724;-31
2022/12/12 01:35:14;;;;;;;4.45;3.50;;;;;;;0.28;91.71;101223.06;5094505;27;99524;-31
2022/12/12 01:37:40;;;;;;;5.70;3.08;;;;;;;0.32;91.61;101230.13;5095404;27;97218;-31
2022/12/12 01:40:12;;;;;;;6.40;3.33;;;;;;;0.32;91.56;101232.78;5076508;27;96633;-31
2022/12/12 01:42:37;;;;;;;8.18;2.45;;;;;;;0.28;91.49;101243.50;5095129;27;96623;-31
2022/12/12 01:45:03;;;;;;;2.67;2.08;;;;;;;0.28;91.49;101238.16;5095252;27;97496;-31
2022/12/12 01:47:28;;;;;;;4.55;2.97;;;;;;;0.25;91.29;101232.88;5094823;27;97760;-31
2022/12/12 01:50:07;;;;;;;8.95;2.63;;;;;;;0.24;91.37;101236.44;5094853;27;96445;-31
2022/12/12 01:52:47;;;;;;;4.20;2.08;;;;;;;0.22;91.07;101239.13;5076792;27;96658;-31
2022/12/12 01:55:21;;;;;;;3.83;3.00;;;;;;;0.17;91.55;101246.31;5076093;27;101315;-32
2022/12/12 01:57:51;;;;;;;4.53;2.63;;;;;;;0.16;91.33;101247.19;5076111;27;100803;-31
2022/12/12 02:00:17;;;;;;;2.88;2.00;;;;;;;0.13;91.46;101240.13;5075710;27;97260;-32
2022/12/12 02:02:45;;;;;;;6.20;3.38;;;;;;;0.10;91.75;101249.94;5094740;27;96508;-32
2022/12/12 02:05:49;;;;;;;4.53;3.25;;;;;;;0.09;91.81;101253.50;5075729;27;100914;-31
2022/12/12 02:08:16;;;;;;;2.53;1.40;;;;;;;0.07;91.55;101248.19;4990590;28;97414;-31
2022/12/12 02:10:43;;;;;;;6.25;4.10;;;;;;;0.05;91.81;101246.44;5058096;27;96715;-31
2022/12/12 02:13:13;;;;;;;5.68;2.58;;;;;;;0.05;92.03;101262.41;5075952;27;96838;-31
2022/12/12 02:15:42;;;;;;;6.15;4.40;;;;;;;0.01;91.48;101271.34;5075665;27;100826;-31
2022/12/12 02:18:33;;;;;;;5.18;4.10;;;;;;;-0.02;91.72;101266.94;5094852;27;98461;-31
2022/12/12 02:21:24;;;;;;;6.22;3.15;;;;;;;-0.07;91.99;101274.97;5094719;27;96464;-31
2022/12/12 02:23:58;;;;;;;3.88;2.67;;;;;;;-0.09;91.95;101271.44;5079896;27;96816;-31
2022/12/12 02:26:45;;;;;;;2.47;1.65;;;;;;;-0.10;91.90;101271.44;5075156;27;100951;-32
2022/12/12 02:29:37;;;;;;;2.08;1.75;;;;;;;-0.07;92.05;101280.31;5094383;27;97884;-31
2022/12/12 02:32:19;;;;;;;3.28;2.75;;;;;;;-0.06;91.96;101275.84;5075586;27;96698;-32
2022/12/12 02:34:54;;;;;;;;;;;;;;;-0.04;92.09;101279.38;5076110;27;96870;-31
2022/12/12 02:37:31;;;;;;;3.95;2.60;;;;;;;-0.11;91.93;101272.38;5094675;27;97234;-32
2022/12/12 02:40:19;;;;;;;2.15;1.63;;;;;;;-0.13;92.11;101277.69;5094289;27;97599;-30
2022/12/12 02:43:09;;;;;;;3.65;2.40;;;;;;;-0.14;92.33;101275.03;5075248;27;96662;-31
2022/12/12 02:46:00;;;;;;;3.67;3.05;;;;;;;-0.10;92.28;101275.00;5076091;27;96750;-33
2022/12/12 02:48:58;;;;;;;2.25;2.05;;;;;;;-0.14;92.14;101270.63;5075298;27;100805;-31
2022/12/12 02:51:26;;;;;;;2.85;2.20;;;;;;;-0.11;92.01;101275.03;5066161;27;100983;-31
2022/12/12 02:53:51;;;;;;;8.88;2.40;;;;;;;-0.18;92.04;101273.34;5074929;27;96953;-31
2022/12/12 02:56:44;;;;;;;2.80;1.67;;;;;;;-0.17;92.00;101281.28;5093998;27;96786;-33
2022/12/12 02:59:20;;;;;;;2.10;1.90;;;;;;;-0.18;92.13;101271.53;5074986;27;100782;-31
2022/12/12 03:02:07;;;;;;;4.07;2.72;;;;;;;-0.12;91.98;101273.25;5075181;27;100869;-31
2022/12/12 03:08:02;;;;;;;2.83;2.30;;;;;;;-0.14;91.80;101270.63;5093562;27;96525;-31
2022/12/12 03:10:39;;;;;;;;;;;;;;;-0.16;92.09;101272.41;5094178;27;97958;-31
2022/12/12 03:13:24;;;;;;;1.30;0.77;;;;;;;-0.19;92.00;101283.09;5093944;27;97955;-31
2022/12/12 03:16:14;;;;;;;4.15;3.25;;;;;;;-0.19;91.92;101284.84;5075066;27;96633;-30
2022/12/12 03:19:12;;;;;;;2.63;2.20;;;;;;;-0.22;92.24;101283.09;5093612;27;96847;-31
2022/12/12 03:22:30;;;;;;;1.45;1.35;;;;;;;-0.27;91.92;101282.28;5092901;27;97951;-31
2022/12/12 03:25:17;;;;;;;4.18;3.00;;;;;;;-0.32;92.15;101281.44;5068937;27;100942;-31
2022/12/12 03:28:04;;;;;;;6.40;4.47;;;;;;;-0.34;91.95;101277.91;5093612;27;96578;-31
2022/12/12 03:30:36;;;;;;;1.85;1.52;;;;;;;-0.30;92.10;101284.97;5074911;27;96728;-31
2022/12/12 03:33:24;;;;;;;2.72;2.30;;;;;;;-0.30;92.13;101277.00;5074911;27;100774;-31
2022/12/12 03:36:13;;;;;;;5.43;4.03;;;;;;;-0.29;91.97;101286.72;5074767;27;100741;-31
2022/12/12 03:38:55;;;;;;;5.60;3.35;;;;;;;-0.35;92.05;101282.38;5076947;27;96836;-31
2022/12/12 03:41:26;;;;;;;3.22;2.42;;;;;;;-0.38;91.98;101284.16;5075214;27;96767;-31
2022/12/12 03:43:59;;;;;;;7.55;4.80;;;;;;;-0.44;91.66;101275.34;5074700;27;100905;-32
2022/12/12 03:46:38;;;;;;;6.82;4.10;;;;;;;-0.44;92.03;101270.00;5093408;27;97536;-31
2022/12/12 03:49:15;;;;;;;3.13;2.17;;;;;;;-0.46;91.69;101279.78;5074061;27;97179;-31
2022/12/12 03:51:50;;;;;;;2.65;2.03;;;;;;;-0.45;91.94;101273.59;5074378;27;96832;-32
2022/12/12 03:54:28;;;;;;;10.45;4.63;;;;;;;-0.43;92.13;101274.47;5093171;27;97476;-32
2022/12/12 03:57:01;;;;;;;3.08;2.13;;;;;;;-0.47;92.14;101280.69;5074574;27;101096;-30
2022/12/12 03:59:33;;;;;;;4.20;3.08;;;;;;;-0.44;91.87;101285.97;5074627;27;96706;-31
2022/12/12 04:02:17;;;;;;;2.75;2.50;;;;;;;-0.46;91.94;101286.91;5092869;27;96711;-32
2022/12/12 04:04:48;;;;;;;5.20;2.72;;;;;;;-0.48;92.04;101283.34;5092959;27;97819;-31
2022/12/12 04:07:28;;;;;;;7.05;3.85;;;;;;;-0.52;92.01;101282.53;5092941;27;99193;-31
2022/12/12 04:12:59;;;;;;;3.25;2.80;;;;;;;-0.55;91.91;101286.97;5093273;27;96592;-31
2022/12/12 04:15:49;;;;;;;3.28;2.58;;;;;;;-0.58;91.73;101285.22;5073589;27;101376;-31
2022/12/12 04:18:20;;;;;;;7.03;4.05;;;;;;;-0.57;91.69;101287.00;5076952;27;101309;-31
2022/12/12 04:23:54;;;;;;;3.10;2.72;;;;;;;-0.56;91.87;101285.22;5094918;27;96846;-31
2022/12/12 04:26:38;;;;;;;4.63;3.17;;;;;;;-0.57;91.65;101284.34;5096266;27;98023;-31
2022/12/12 04:29:15;;;;;;;6.00;3.22;;;;;;;-0.56;91.62;101282.56;5096088;27;97854;-31
2022/12/12 04:32:06;;;;;;;6.40;3.33;;;;;;;-0.57;91.65;101283.44;5096229;27;96615;-31
2022/12/12 04:34:49;;;;;;;7.18;2.67;;;;;;;-0.58;91.76;101295.88;5096884;27;96654;-31
2022/12/12 04:37:19;;;;;;;2.33;1.75;;;;;;;-0.60;91.67;101289.66;5095980;27;97535;-31
2022/12/12 04:39:48;;;;;;;4.68;2.40;;;;;;;-0.60;91.47;101296.78;5077636;27;101489;-32
2022/12/12 04:42:17;;;;;;;4.35;2.53;;;;;;;-0.62;91.55;101290.59;5076894;27;97137;-30
2022/12/12 04:44:45;;;;;;;3.42;2.88;;;;;;;-0.66;91.27;101287.97;5077507;27;96888;-31
2022/12/12 04:47:13;;;;;;;1.52;1.38;;;;;;;-0.66;91.62;101289.75;5077193;27;101390;-31
2022/12/12 04:49:41;;;;;;;11.10;3.17;;;;;;;-0.67;91.42;101294.19;5077203;27;101429;-31
2022/12/12 04:52:10;;;;;;;4.13;3.25;;;;;;;-0.69;91.68;101284.41;5095831;27;96693;-31
2022/12/12 04:54:57;;;;;;;6.05;3.00;;;;;;;-0.67;91.35;101290.63;5077587;27;96861;-31
2022/12/12 04:57:28;;;;;;;9.43;4.00;;;;;;;-0.74;91.35;101292.47;5095836;27;98016;-31
2022/12/12 04:59:54;;;;;;;9.18;5.05;;;;;;;-0.82;91.35;101286.31;5077321;27;101154;-32
2022/12/12 05:02:36;;;;;;;5.22;3.35;;;;;;;-0.82;91.51;101285.44;5095437;27;96642;-31
2022/12/12 05:05:17;;;;;;;4.30;3.50;;;;;;;-0.82;91.60;101288.97;5077132;27;96819;-32
2022/12/12 05:07:51;;;;;;;2.53;2.03;;;;;;;-0.79;91.69;101294.25;5076490;27;100988;-31
2022/12/12 05:10:17;;;;;;;3.33;2.58;;;;;;;-0.79;91.76;101288.06;5076982;27;100972;-31
2022/12/12 05:12:48;;;;;;;3.00;2.50;;;;;;;-0.79;91.49;101294.25;5076852;27;96674;-31
2022/12/12 05:15:16;;;;;;;1.83;1.63;;;;;;;-0.77;91.51;101294.25;5095889;27;96675;-31
2022/12/12 05:17:45;;;;;;;6.32;2.40;;;;;;;-0.76;91.60;101298.66;5076697;27;100714;-31
2022/12/12 05:20:11;;;;;;;3.40;2.35;;;;;;;-0.82;91.04;101288.09;5095123;27;97952;-31
2022/12/12 05:22:37;;;;;;;3.20;2.22;;;;;;;-0.80;91.41;101302.25;5076523;27;96809;-31
2022/12/12 05:25:03;;;;;;;4.93;3.58;;;;;;;-0.83;91.12;101304.94;5095824;27;96737;-30
2022/12/12 05:27:28;;;;;;;12.13;3.28;;;;;;;-0.88;91.36;101305.88;5076108;27;101341;-31
2022/12/12 05:29:53;;;;;;;2.63;2.08;;;;;;;-0.87;91.33;101304.97;5095366;27;97307;-31
2022/12/12 05:32:19;;;;;;;2.00;1.65;;;;;;;-0.86;91.38;101301.41;5095062;27;96717;-32
2022/12/12 05:34:44;;;;;;;5.10;2.83;;;;;;;-0.84;91.26;101311.16;5095252;27;96754;-33
2022/12/12 05:37:09;;;;;;;6.15;3.10;;;;;;;-0.86;91.16;101304.09;5095223;27;97412;-31
2022/12/12 05:39:35;;;;;;;6.32;3.55;;;;;;;-0.84;91.15;101306.72;5095135;27;97656;-31
2022/12/12 05:42:00;;;;;;;4.53;2.72;;;;;;;-0.88;90.96;101307.66;5095000;27;96652;-31
2022/12/12 05:44:25;;;;;;;5.50;3.83;;;;;;;-0.91;91.34;101305.84;5094821;27;96917;-34
2022/12/12 05:46:51;;;;;;;2.15;1.65;;;;;;;-0.90;91.19;101315.63;5095044;27;98017;-32
2022/12/12 05:49:16;;;;;;;5.38;3.00;;;;;;;-0.93;91.00;101310.34;5095191;27;97830;-31
2022/12/12 05:51:42;;;;;;;6.93;3.58;;;;;;;-0.94;91.15;101320.97;5094796;27;96599;-31
2022/12/12 05:54:07;;;;;;;1.20;1.10;;;;;;;-0.95;90.96;101316.56;5094991;27;96749;-32
2022/12/12 05:56:32;;;;;;;2.10;1.52;;;;;;;-0.97;91.02;101321.88;5093956;27;97079;-31
2022/12/12 05:58:58;;;;;;;2.92;1.77;;;;;;;-0.96;91.06;101317.44;5094699;27;97263;-31
2022/12/12 06:01:23;;;;;;;3.15;2.25;;;;;;;-0.98;91.02;101316.56;5094963;27;96491;-31
2022/12/12 06:03:48;;;;;;;3.70;2.17;;;;;;;-1.02;90.99;101321.03;5094922;27;96782;-31
2022/12/12 06:06:14;;;;;;;7.05;3.33;;;;;;;-1.04;91.24;101319.28;5094655;27;97886;-32
2022/12/12 06:08:39;;;;;;;5.05;2.58;;;;;;;-1.04;91.19;101327.25;5094297;27;99673;-31
2022/12/12 06:11:06;;;;;;;3.00;2.70;;;;;;;-1.05;91.38;101330.78;5094769;27;96599;-31
2022/12/12 06:13:32;;;;;;;4.32;1.50;;;;;;;-1.04;91.25;101336.09;5076401;27;96579;-31
2022/12/12 06:15:57;;;;;;;4.35;2.78;;;;;;;-1.03;91.23;101337.84;5094208;27;99556;-31
2022/12/12 06:18:22;;;;;;;5.05;2.78;;;;;;;-1.07;91.25;101328.16;5094145;27;97826;-30
2022/12/12 06:20:48;;;;;;;4.40;2.15;;;;;;;-1.04;91.16;101340.53;5094129;27;96541;-31
2022/12/12 06:23:13;;;;;;;4.65;3.47;;;;;;;-1.07;91.18;101333.47;5093747;27;96812;-31
2022/12/12 06:25:39;;;;;;;3.22;1.80;;;;;;;-1.07;91.20;101342.31;5094311;27;97465;-32
2022/12/12 06:28:04;;;;;;;2.92;2.33;;;;;;;-1.09;91.16;101338.78;5094336;27;97796;-31
2022/12/12 06:30:29;;;;;;;2.47;2.28;;;;;;;-1.11;91.13;101343.22;5094454;27;96521;-31
2022/12/12 06:32:55;;;;;;;4.25;1.88;;;;;;;-1.10;91.22;101345.00;5094090;27;96756;-32
2022/12/12 06:35:20;;;;;;;7.25;4.13;;;;;;;-1.10;91.05;101346.75;5094323;27;98315;-31
2022/12/12 06:37:47;;;;;;;5.43;4.03;;;;;;;-1.09;90.75;101345.88;5094636;27;97789;-32
2022/12/12 06:40:13;;;;;;;7.22;3.35;;;;;;;-1.12;90.88;101346.78;5074602;27;96710;-32
2022/12/12 06:42:39;;;;;;;8.43;3.17;;;;;;;-1.14;90.91;101343.25;5094305;27;96811;-32
2022/12/12 06:45:05;;;;;;;4.90;3.28;;;;;;;-1.16;90.98;101350.34;5093661;27;97932;-31
2022/12/12 06:47:30;;;;;;;2.83;1.88;;;;;;;-1.13;90.87;101355.63;5075048;27;100841;-31
2022/12/12 06:49:56;;;;;;;5.13;3.90;;;;;;;-1.13;91.20;101357.41;5094102;27;96790;-31
2022/12/12 06:52:21;;;;;;;3.08;1.85;;;;;;;-1.13;90.84;101357.41;5094323;27;96710;-31
2022/12/12 06:54:46;;;;;;;3.28;2.50;;;;;;;-1.14;90.79;101358.31;5093811;27;97277;-31
2022/12/12 06:57:12;;;;;;;5.00;2.50;;;;;;;-1.17;90.52;101358.31;5093525;27;99320;-32
2022/12/12 06:59:37;;;;;;;12.35;5.75;;;;;;;-1.22;90.79;101365.44;5093705;27;96536;-32
2022/12/12 07:02:02;;;;;;;2.97;2.63;;;;;;;-1.29;90.71;101352.19;5094317;27;96796;-30
2022/12/12 07:04:28;;;;;;;4.93;4.07;;;;;;;-1.27;90.68;101356.59;5093833;27;97963;-31
2022/12/12 07:06:53;;;;;;;18.35;3.13;;;;;;;-1.32;90.88;101356.63;5093524;27;99256;-31
2022/12/12 07:09:19;;;;;;;9.38;3.58;;;;;;;-1.34;90.99;101364.59;5092938;27;96662;-31
2022/12/12 07:11:45;;;;;;;7.97;2.63;;;;;;;-1.33;91.12;101355.75;5093972;27;96780;-31
2022/12/12 07:14:11;;;;;;;3.03;2.10;;;;;;;-1.33;90.81;101360.19;5074816;27;100705;-32
2022/12/12 07:16:36;;;;;;;4.13;2.70;;;;;;;-1.37;90.91;101375.22;5074815;27;100701;-31
2022/12/12 07:19:02;;;;;;;6.95;1.98;;;;;;;-1.39;90.96;101376.13;5074784;27;96631;-31
2022/12/12 07:21:28;;;;;;;6.65;4.60;;;;;;;-1.37;91.08;101380.56;5074918;27;96842;-31
2022/12/12 07:23:55;;;;;;;7.35;3.10;;;;;;;-1.35;91.36;101367.28;5092790;27;97624;-31
2022/12/12 07:26:23;;;;;;;4.53;2.03;;;;;;;-1.30;91.32;101373.44;5093693;27;98430;-32
2022/12/12 07:28:49;;;;;;;3.10;2.17;;;;;;;-1.33;91.31;101370.81;5074841;27;96609;-31
2022/12/12 07:31:18;;;;;;;13.10;3.92;;;;;;;-1.33;90.86;101377.00;5074840;27;96756;-31
2022/12/12 07:33:44;;;;;;;4.03;2.63;;;;;;;-1.36;90.94;101365.47;5074180;27;100851;-31
2022/12/12 07:36:11;;;;;;;5.75;3.80;;;;;;;-1.42;90.98;101382.34;5093317;27;97787;-31
2022/12/12 07:38:36;;;;;;;2.90;2.65;;;;;;;-1.43;90.75;101385.91;5074840;27;96705;-32
2022/12/12 07:41:06;;;;;;;8.45;3.95;;;;;;;-1.39;91.21;101389.41;5093574;27;96664;-31
2022/12/12 07:43:36;;;;;;;7.55;4.75;;;;;;;-1.37;91.23;101387.66;5074496;27;99064;-30
2022/12/12 07:46:06;;;;;;;3.30;2.20;;;;;;;-1.40;90.96;101387.66;5074416;27;101493;-33
2022/12/12 07:48:31;;;;;;;6.15;2.03;;;;;;;-1.43;90.81;101400.94;5074504;27;96625;-31
2022/12/12 07:50:59;;;;;;;24.10;5.13;;;;;;;-1.48;91.02;101398.28;5094566;27;96792;-31
2022/12/12 07:53:26;;;;;;;3.45;2.13;;;;;;;-1.52;91.12;101407.19;5077827;27;100821;-32
2022/12/12 07:55:51;;;;;;;1.83;1.58;;;;;;;-1.51;90.87;101406.28;5077965;27;101352;-32
2022/12/12 07:58:16;;;;;;;3.75;2.70;;;;;;;-1.48;90.93;101408.03;5096376;27;96566;-31
2022/12/12 08:00:42;;;;;;;2.25;1.27;;;;;;;-1.47;90.92;101409.81;5096913;27;96792;-31
2022/12/12 08:03:07;;;;;;;4.50;3.17;;;;;;;-1.46;91.14;101408.91;5096762;27;97876;-34
2022/12/12 08:05:32;;;;;;;1.67;1.45;;;;;;;-1.48;90.74;101414.22;5096684;27;97299;-31
2022/12/12 08:07:58;;;;;;;4.22;2.50;;;;;;;-1.54;90.63;101425.75;5096397;27;96530;-32
2022/12/12 08:10:23;;;;;;;7.05;2.85;;;;;;;-1.60;90.76;101417.81;5096582;27;96810;-31
2022/12/12 08:12:48;;;;;;;2.15;1.80;;;;;;;-1.57;90.83;101430.22;5096512;27;97384;-30
2022/12/12 08:15:16;;;;;;;7.40;3.55;;;;;;;-1.61;90.55;101431.97;5096664;27;99174;-31
2022/12/12 08:17:42;;;;;;;2.08;1.50;;;;;;;-1.59;91.44;101427.56;5077796;27;96535;-31
2022/12/12 08:20:08;;;;;;;4.07;2.85;;;;;;;-1.55;90.89;101428.41;5077790;27;96829;-31
2022/12/12 08:22:33;;;;;;;2.88;2.22;;;;;;;-1.51;91.14;101425.75;5076748;27;101369;-31
2022/12/12 08:24:59;;;;;;;2.22;1.42;;;;;;;-1.42;90.95;101431.94;5096028;27;97919;-31
2022/12/12 08:27:24;;;;;;;5.35;1.55;;;;;;;-1.40;90.66;101427.50;5096450;27;96530;-31
2022/12/12 08:29:51;;;;;;;2.40;2.20;;;;;;;-1.36;90.91;101427.50;5096239;27;96753;-31
2022/12/12 08:32:18;;;;;;;5.47;3.85;;;;;;;-1.34;90.78;101428.34;5077483;27;98968;-31
2022/12/12 08:34:44;;;;;;;5.30;3.50;;;;;;;-1.32;90.34;101423.03;5096224;27;97764;-31
2022/12/12 08:37:09;;;;;;;5.40;2.70;;;;;;;-1.32;90.30;101433.69;5095780;27;96596;-31
2022/12/12 08:39:36;;;;;;;4.18;3.40;;;;;;;-1.28;90.66;101432.78;5096733;27;96778;-32
2022/12/12 08:42:02;;;;;;;6.90;3.88;;;;;;;-1.28;90.45;101432.78;5077172;27;101004;-31
2022/12/12 08:44:28;;;;;;;7.75;4.35;;;;;;;-1.36;90.54;101434.56;5077205;27;100858;-31
2022/12/12 08:46:53;;;;;;;4.75;3.95;;;;;;;-1.41;90.59;101431.91;5095501;27;96597;-31
2022/12/12 08:49:19;;;;;;;2.83;2.45;;;;;;;-1.43;90.63;101433.72;5095587;27;96697;-31
2022/12/12 08:51:44;;;;;;;5.75;2.55;;;;;;;-1.43;90.70;101433.72;5095779;27;97906;-31
2022/12/12 08:54:11;;;;;;;4.93;4.28;;;;;;;-1.43;90.80;101444.34;5095850;27;97972;-31
2022/12/12 08:56:37;;;;;;;7.15;4.18;;;;;;;-1.48;90.71;101430.16;5095786;27;96603;-31
2022/12/12 08:59:02;;;;;;;5.40;3.60;;;;;;;-1.45;90.83;101440.81;5095794;27;96738;-31
2022/12/12 09:01:28;;;;;;;6.43;3.58;;;;;;;-1.44;90.86;101439.03;5095798;27;97463;-31
2022/12/12 09:03:55;;;;;;;8.02;5.10;;;;;;;-1.48;90.54;101448.75;5095144;27;99566;-32
2022/12/12 09:06:21;;;;;;;6.22;2.83;;;;;;;-1.45;91.13;101445.22;5077099;27;96550;-31
2022/12/12 09:08:46;;;;;;;5.40;3.35;;;;;;;-1.42;90.68;101446.09;5076971;27;96685;-31
2022/12/12 09:11:12;;;;;;;4.30;2.65;;;;;;;-1.42;90.96;101446.09;5095132;27;98107;-31
2022/12/12 09:13:38;;;;;;;4.43;2.47;;;;;;;-1.38;90.93;101439.00;5076849;27;101077;-31
2022/12/12 09:16:06;;;;;;;7.10;3.58;;;;;;;-1.40;90.40;101444.34;5077008;27;96544;-32
2022/12/12 09:18:31;;;;;;;4.65;3.00;;;;;;;-1.41;90.40;101446.97;5076573;27;97129;-32
2022/12/12 09:20:58;;;;;;;3.22;2.65;;;;;;;-1.36;90.84;101453.16;5095343;27;97322;-31
2022/12/12 09:23:24;;;;;;;4.78;2.90;;;;;;;-1.38;90.43;101458.50;5076032;27;101207;-31
2022/12/12 09:25:50;;;;;;;3.75;2.92;;;;;;;-1.32;90.69;101452.28;5076727;27;96691;-32
2022/12/12 09:28:18;;;;;;;3.17;2.83;;;;;;;-1.29;90.46;101447.84;5077072;27;96779;-31
2022/12/12 09:30:44;;;;;;;3.58;2.65;;;;;;;-1.25;90.32;101448.72;5076714;27;100916;-31
2022/12/12 09:33:11;;;;;;;7.43;3.80;;;;;;;-1.19;90.17;101440.72;5095066;27;97547;-31
2022/12/12 09:35:37;;;;;;;6.05;2.88;;;;;;;-1.18;90.18;101445.13;5076223;27;96981;-31
2022/12/12 09:38:03;;;;;;;4.75;2.67;;;;;;;-1.20;89.82;101446.03;5095357;27;96715;-31
2022/12/12 09:40:37;;;;;;;7.72;3.85;;;;;;;-1.16;90.12;101447.81;5076310;27;101482;-31
2022/12/12 09:43:03;;;;;;;1.08;0.98;;;;;;;-1.11;89.92;101443.34;5076535;27;100996;-30
2022/12/12 09:45:31;;;;;;;2.53;0.85;;;;;;;-1.04;89.55;101450.41;5076357;27;96572;-31
2022/12/12 09:48:00;;;;;;;13.75;3.42;;;;;;;-1.03;89.48;101444.19;5094746;27;97040;-31
2022/12/12 09:50:37;;;;;;;7.80;2.78;;;;;;;-0.97;89.77;101438.84;5094717;27;97900;-31
2022/12/12 09:53:09;;;;;;;8.38;3.58;;;;;;;-0.98;89.11;101445.06;5076602;27;100966;-32
2022/12/12 09:55:38;;;;;;;;;;;;;;;-0.96;88.68;101451.25;5076817;27;96699;-32
2022/12/12 09:58:18;;;;;;;7.25;2.05;;;;;;;-0.81;89.64;101434.38;5094861;27;96797;-32
2022/12/12 10:01:11;;;;;;;3.35;1.98;;;;;;;-0.68;89.49;101430.72;5094042;27;99842;-30
2022/12/12 10:03:43;;;;;;;8.77;2.00;;;;;;;-0.56;88.49;101442.19;5093899;27;97434;-31
2022/12/12 10:06:11;;;;;;;7.03;2.72;;;;;;;-0.52;88.37;101446.59;5094572;27;96513;-31
2022/12/12 10:08:48;;;;;;;17.65;4.05;;;;;;;-0.54;87.53;101449.25;5075701;27;96822;-31
2022/12/12 10:14:08;;;;;;;13.00;4.05;;;;;;;-0.46;87.41;101438.56;5093817;27;97076;-34
2022/12/12 10:16:34;;;;;;;4.28;3.80;;;;;;;-0.49;86.78;101439.47;5094147;27;96500;-31
2022/12/12 10:19:19;;;;;;;5.18;3.28;;;;;;;-0.38;87.56;101441.16;5075811;27;96860;-31
2022/12/12 10:21:48;;;;;;;1.90;1.63;;;;;;;-0.33;87.05;101437.59;5075636;27;100879;-31
2022/12/12 10:24:29;;;;;;;4.38;2.72;;;;;;;-0.17;87.31;101429.47;5075093;27;101244;-31
2022/12/12 10:26:54;;;;;;;6.68;2.90;;;;;;;0.01;86.02;101428.47;5075361;27;97264;-31
2022/12/12 10:29:21;;;;;;;3.40;2.90;;;;;;;0.18;86.03;101424.72;5075652;27;96832;-31
2022/12/12 10:32:08;;;;;;;3.45;1.60;;;;;;;0.39;85.20;101417.44;5094041;27;99062;-31
2022/12/12 10:35:10;;;;;;;8.40;3.42;;;;;;;0.53;83.43;101409.31;5075565;27;100875;-31
2022/12/12 10:37:35;;;;;;;7.30;3.53;;;;;;;0.76;82.74;101417.00;5094565;27;96452;-32
2022/12/12 10:40:29;;;;;;;10.57;4.57;;;;;;;0.79;81.50;101409.88;5094063;27;96849;-31
2022/12/12 10:43:26;;;;;;;5.05;3.05;;;;;;;1.04;81.61;101417.56;5093821;27;99247;-32
2022/12/12 10:46:23;;;;;;;5.18;2.53;;;;;;;0.99;81.44;101414.06;5075712;27;101332;-31
2022/12/12 10:48:50;;;;;;;2.70;1.13;;;;;;;1.12;80.31;101410.34;5079520;27;96813;-31
2022/12/12 10:51:17;;;;;;;5.13;3.90;;;;;;;1.38;79.81;101401.06;5093815;27;96938;-31
2022/12/12 10:53:43;;;;;;;13.80;4.60;;;;;;;1.52;78.86;101414.22;5074840;27;100987;-31
2022/12/12 10:56:17;;;;;;;5.15;3.10;;;;;;;1.57;78.90;101405.22;5075091;27;100678;-32
2022/12/12 10:58:51;;;;;;;8.10;4.30;;;;;;;1.68;79.11;101408.63;5075089;27;96700;-30
2022/12/12 11:01:29;;;;;;;5.63;4.57;;;;;;;1.83;78.57;101404.81;5075333;27;96763;-32
2022/12/12 11:03:56;;;;;;;6.40;3.88;;;;;;;1.94;77.97;101398.41;5075283;27;101051;-31
2022/12/12 11:06:35;;;;;;;9.35;4.25;;;;;;;2.03;76.78;101404.50;5075123;27;101397;-31
2022/12/12 11:09:21;;;;;;;6.38;4.05;;;;;;;1.95;76.68;101409.06;5075131;27;96815;-31
2022/12/12 11:11:56;;;;;;;8.90;5.25;;;;;;;1.81;76.17;101405.75;5094038;27;96802;-31
2022/12/12 11:14:30;;;;;;;7.15;3.10;;;;;;;1.68;76.74;101407.75;5074687;27;101406;-31
2022/12/12 11:16:56;;;;;;;5.78;3.83;;;;;;;1.70;76.99;101405.94;5093732;27;97864;-31
2022/12/12 11:19:24;;;;;;;6.32;3.65;;;;;;;1.37;78.18;101402.88;5092530;27;97197;-31
2022/12/12 11:21:50;;;;;;;5.50;3.72;;;;;;;1.12;79.36;101398.75;5074778;27;96965;-31
2022/12/12 11:24:28;;;;;;;5.75;3.72;;;;;;;0.98;80.02;101406.97;5092400;27;99204;-31
2022/12/12 11:26:59;;;;;;;7.60;4.78;;;;;;;0.84;80.81;101404.47;5073846;27;101205;-31
2022/12/12 11:29:47;;;;;;;9.05;3.83;;;;;;;0.75;81.83;101405.47;5074695;27;96564;-30
2022/12/12 11:32:20;;;;;;;10.32;6.50;;;;;;;0.66;82.42;101405.56;5074942;27;96831;-30
2022/12/12 11:34:50;;;;;;;4.50;2.72;;;;;;;0.63;82.89;101400.28;5074795;27;101047;-30
2022/12/12 11:37:25;;;;;;;7.60;3.25;;;;;;;0.68;83.22;101394.91;5093898;27;97423;-30
2022/12/12 11:39:53;;;;;;;8.43;3.83;;;;;;;0.78;83.32;101397.41;5072577;27;96488;-31
2022/12/12 11:42:38;;;;;;;3.58;3.17;;;;;;;0.99;82.73;101398.06;5068552;27;96834;-30
2022/12/12 11:45:20;;;;;;;2.28;1.80;;;;;;;1.16;81.85;101392.50;5091983;27;97381;-30
2022/12/12 11:47:47;;;;;;;6.07;3.63;;;;;;;1.26;81.22;101392.34;5074571;27;100709;-31
2022/12/12 11:50:28;;;;;;;7.45;4.28;;;;;;;1.25;79.45;101384.38;5093124;27;96450;-32
2022/12/12 11:53:02;;;;;;;2.67;2.22;;;;;;;1.46;80.67;101392.06;5074456;27;96830;-31
2022/12/12 11:55:56;;;;;;;2.97;2.17;;;;;;;1.67;79.65;101381.97;5074460;27;100987;-30